createdAt,value
2018-09-06T00:01:47.058Z,75.70
2018-09-06T00:04:14.726Z,76.00
2018-09-06T00:06:43.802Z,75.80
2018-09-06T00:09:11.485Z,75.90
2018-09-06T00:11:39.181Z,75.90
2018-09-06T00:14:08.134Z,75.90
2018-09-06T00:16:36.733Z,75.90
2018-09-06T00:19:05.349Z,75.90
2018-09-06T00:21:34.234Z,75.80
2018-09-06T00:24:01.981Z,75.80
2018-09-06T00:26:30.616Z,75.90
2018-09-06T00:28:59.058Z,75.80
2018-09-06T00:31:27.610Z,76.00
2018-09-06T00:33:56.753Z,75.80
2018-09-06T00:36:25.498Z,75.90
2018-09-06T00:38:53.233Z,75.90
2018-09-06T00:41:23.195Z,76.00
2018-09-06T00:43:51.637Z,75.90
2018-09-06T00:46:21.045Z,75.90
2018-09-06T00:48:51.101Z,75.90
2018-09-06T00:51:18.893Z,76.10
2018-09-06T00:53:46.669Z,76.00
2018-09-06T00:56:15.265Z,76.10
2018-09-06T00:58:43.856Z,76.00
2018-09-06T01:01:11.524Z,76.10
2018-09-06T01:03:40.324Z,76.20
2018-09-06T01:06:09.021Z,76.20
2018-09-06T01:08:36.702Z,76.10
2018-09-06T01:11:04.404Z,76.20
2018-09-06T01:13:32.060Z,76.20
2018-09-06T01:16:00.195Z,76.30
2018-09-06T01:18:27.858Z,76.40
2018-09-06T01:20:55.545Z,76.20
2018-09-06T01:23:23.224Z,76.40
2018-09-06T01:25:52.560Z,77.10
2018-09-06T01:28:21.324Z,76.40
2018-09-06T01:30:50.775Z,76.40
2018-09-06T01:33:18.475Z,76.50
2018-09-06T01:35:52.316Z,76.50
2018-09-06T01:38:21.374Z,76.40
2018-09-06T01:40:49.081Z,76.50
2018-09-06T01:43:16.758Z,76.50
2018-09-06T01:45:45.998Z,76.50
2018-09-06T01:48:13.693Z,76.50
2018-09-06T01:50:42.351Z,76.40
2018-09-06T01:53:10.090Z,76.30
2018-09-06T01:55:37.760Z,76.40
2018-09-06T01:58:05.437Z,76.40
2018-09-06T02:00:33.113Z,76.30
2018-09-06T02:03:01.757Z,76.60
2018-09-06T02:05:30.524Z,76.40
2018-09-06T02:07:58.333Z,76.30
2018-09-06T02:10:27.428Z,76.50
2018-09-06T02:12:55.174Z,76.40
2018-09-06T02:15:22.868Z,76.40
2018-09-06T02:17:51.451Z,76.50
2018-09-06T02:20:20.599Z,76.40
2018-09-06T02:22:49.900Z,76.50
2018-09-06T02:25:17.572Z,76.40
2018-09-06T02:27:45.236Z,76.40
2018-09-06T02:30:13.298Z,76.50
2018-09-06T02:32:40.971Z,76.40
2018-09-06T02:35:09.601Z,76.50
2018-09-06T02:37:38.506Z,76.40
2018-09-06T02:40:06.458Z,76.40
2018-09-06T02:42:34.136Z,76.90
2018-09-06T02:45:03.826Z,76.50
2018-09-06T02:47:31.513Z,76.50
2018-09-06T02:50:04.975Z,76.40
2018-09-06T02:52:32.641Z,76.40
2018-09-06T02:55:01.647Z,76.60
2018-09-06T02:57:30.061Z,76.50
2018-09-06T02:59:58.745Z,76.50
2018-09-06T03:02:27.442Z,76.30
2018-09-06T03:04:56.123Z,76.50
2018-09-06T03:07:23.798Z,76.60
2018-09-06T03:09:52.039Z,76.60
2018-09-06T03:12:21.427Z,76.50
2018-09-06T03:14:51.150Z,76.50
2018-09-06T03:17:21.453Z,76.60
2018-09-06T03:19:51.015Z,76.50
2018-09-06T03:22:19.461Z,76.70
2018-09-06T03:24:48.064Z,76.60
2018-09-06T03:27:17.085Z,76.70
2018-09-06T03:29:44.758Z,76.60
2018-09-06T03:32:13.463Z,76.70
2018-09-06T03:34:42.021Z,76.60
2018-09-06T03:37:09.729Z,76.50
2018-09-06T03:39:38.280Z,76.60
2018-09-06T03:42:06.855Z,76.60
2018-09-06T03:44:34.520Z,76.50
2018-09-06T03:47:03.755Z,76.70
2018-09-06T03:49:31.462Z,76.70
2018-09-06T03:52:01.664Z,76.50
2018-09-06T03:54:30.311Z,76.50
2018-09-06T03:56:59.321Z,76.50
2018-09-06T03:59:27.131Z,76.60
2018-09-06T04:01:55.841Z,76.60
2018-09-06T04:04:24.188Z,76.50
2018-09-06T04:06:52.802Z,76.60
2018-09-06T04:09:21.458Z,76.60
2018-09-06T04:11:51.107Z,76.70
2018-09-06T04:14:18.824Z,76.60
2018-09-06T04:16:46.513Z,76.70
2018-09-06T04:19:14.188Z,77.40
2018-09-06T04:21:42.364Z,76.50
2018-09-06T04:24:10.071Z,76.60
2018-09-06T04:26:37.748Z,76.60
2018-09-06T04:29:06.794Z,76.50
2018-09-06T04:31:34.460Z,76.50
2018-09-06T04:34:02.152Z,76.40
2018-09-06T04:36:30.332Z,76.40
2018-09-06T04:38:58.044Z,76.50
2018-09-06T04:41:25.834Z,76.40
2018-09-06T04:43:54.645Z,76.40
2018-09-06T04:46:23.172Z,76.40
2018-09-06T04:48:52.150Z,76.30
2018-09-06T04:51:19.859Z,76.30
2018-09-06T04:53:47.558Z,76.30
2018-09-06T04:56:15.234Z,76.30
2018-09-06T04:58:43.297Z,76.40
2018-09-06T05:01:10.969Z,76.30
2018-09-06T05:03:39.561Z,76.30
2018-09-06T05:06:08.153Z,76.30
2018-09-06T05:08:35.868Z,76.20
2018-09-06T05:11:04.593Z,76.40
2018-09-06T05:13:33.299Z,76.50
2018-09-06T05:16:01.980Z,76.20
2018-09-06T05:18:30.441Z,76.40
2018-09-06T05:21:00.276Z,76.00
2018-09-06T05:23:28.043Z,76.20
2018-09-06T05:25:56.832Z,76.30
2018-09-06T05:28:44.708Z,76.00
2018-09-06T05:31:12.389Z,76.30
2018-09-06T05:33:40.068Z,76.30
2018-09-06T05:36:07.816Z,76.40
2018-09-06T05:38:36.556Z,76.10
2018-09-06T05:41:05.653Z,75.60
2018-09-06T05:43:33.363Z,75.40
2018-09-06T05:46:01.074Z,75.20
2018-09-06T05:48:30.412Z,74.90
2018-09-06T05:50:58.128Z,74.90
2018-09-06T05:53:25.840Z,74.60
2018-09-06T05:55:54.935Z,74.40
2018-09-06T05:58:22.635Z,74.50
2018-09-06T06:00:51.008Z,74.20
2018-09-06T06:03:19.829Z,74.20
2018-09-06T06:05:48.429Z,74.10
2018-09-06T06:08:21.806Z,74.30
2018-09-06T06:10:51.396Z,74.20
2018-09-06T06:13:21.032Z,74.20
2018-09-06T06:15:48.869Z,74.20
2018-09-06T06:18:17.611Z,74.20
2018-09-06T06:20:46.307Z,74.30
2018-09-06T06:23:14.046Z,74.30
2018-09-06T06:25:41.715Z,74.30
2018-09-06T06:28:09.384Z,74.20
2018-09-06T06:30:37.069Z,74.30
2018-09-06T06:33:04.771Z,74.20
2018-09-06T06:35:32.457Z,74.30
2018-09-06T06:38:01.329Z,74.30
2018-09-06T06:40:30.041Z,74.30
2018-09-06T06:42:57.708Z,74.30
2018-09-06T06:45:25.469Z,74.10
2018-09-06T06:47:53.143Z,74.50
2018-09-06T06:50:21.799Z,74.50
2018-09-06T06:52:49.491Z,74.50
2018-09-06T06:55:17.188Z,74.40
2018-09-06T06:57:45.745Z,74.40
2018-09-06T07:00:13.504Z,74.40
2018-09-06T07:02:41.175Z,74.40
2018-09-06T07:05:09.722Z,74.40
2018-09-06T07:07:38.424Z,74.30
2018-09-06T07:10:06.093Z,74.50
2018-09-06T07:12:34.689Z,74.50
2018-09-06T07:15:02.375Z,74.50
2018-09-06T07:17:31.492Z,74.50
2018-09-06T07:20:00.101Z,74.60
2018-09-06T07:22:27.784Z,74.60
2018-09-06T07:24:55.482Z,74.70
2018-09-06T07:27:24.043Z,74.60
2018-09-06T07:29:52.988Z,74.70
2018-09-06T07:32:22.247Z,74.80
2018-09-06T07:34:50.870Z,74.70
2018-09-06T07:37:18.612Z,74.80
2018-09-06T07:39:47.303Z,74.90
2018-09-06T07:42:14.997Z,74.90
2018-09-06T07:44:42.801Z,75.10
2018-09-06T07:47:10.478Z,75.00
2018-09-06T07:49:38.196Z,75.10
2018-09-06T07:52:05.982Z,75.10
2018-09-06T07:54:33.679Z,75.10
2018-09-06T07:57:01.344Z,75.20
2018-09-06T07:59:30.035Z,75.20
2018-09-06T08:01:57.712Z,75.20
2018-09-06T08:04:26.396Z,75.30
2018-09-06T08:06:54.064Z,75.30
2018-09-06T08:09:22.348Z,75.30
2018-09-06T08:11:50.668Z,75.40
2018-09-06T08:14:18.405Z,75.40
2018-09-06T08:16:47.293Z,76.10
2018-09-06T08:19:15.840Z,75.50
2018-09-06T08:21:43.516Z,75.40
2018-09-06T08:24:11.412Z,75.40
2018-09-06T08:26:39.289Z,75.40
2018-09-06T08:29:08.528Z,75.60
2018-09-06T08:31:37.084Z,75.30
2018-09-06T08:34:05.955Z,75.30
2018-09-06T08:36:33.916Z,75.40
2018-09-06T08:39:02.041Z,75.50
2018-09-06T08:41:30.811Z,75.40
2018-09-06T08:43:59.003Z,75.50
2018-09-06T08:46:26.730Z,75.40
2018-09-06T08:48:54.425Z,75.30
2018-09-06T08:51:22.618Z,75.50
2018-09-06T08:53:51.027Z,75.60
2018-09-06T08:56:25.707Z,75.70
2018-09-06T08:58:54.532Z,75.70
2018-09-06T09:01:28.028Z,75.60
2018-09-06T09:03:56.653Z,75.70
2018-09-06T09:06:24.459Z,75.70
2018-09-06T09:08:53.491Z,75.80
2018-09-06T09:11:21.863Z,75.90
2018-09-06T09:13:50.347Z,75.90
2018-09-06T09:16:18.276Z,75.90
2018-09-06T09:18:46.861Z,75.90
2018-09-06T09:21:15.464Z,75.90
2018-09-06T09:23:43.305Z,76.00
2018-09-06T09:26:11.021Z,76.00
2018-09-06T09:28:38.887Z,76.00
2018-09-06T09:31:07.491Z,76.10
2018-09-06T09:33:36.215Z,76.10
2018-09-06T09:36:03.954Z,76.00
2018-09-06T09:38:31.716Z,76.00
2018-09-06T09:40:59.508Z,76.00
2018-09-06T09:43:28.337Z,75.80
2018-09-06T09:48:25.826Z,75.60
2018-09-06T09:50:53.509Z,75.40
2018-09-06T09:53:23.716Z,75.70
2018-09-06T09:55:54.023Z,75.60
2018-09-06T09:58:24.052Z,75.70
2018-09-06T10:00:53.873Z,76.00
2018-09-06T10:03:27.752Z,75.70
2018-09-06T10:06:00.616Z,75.50
2018-09-06T10:08:33.834Z,75.80
2018-09-06T10:11:02.388Z,75.70
2018-09-06T10:13:31.133Z,75.80
2018-09-06T10:15:59.804Z,76.00
2018-09-06T10:18:27.501Z,76.00
2018-09-06T10:20:55.188Z,76.00
2018-09-06T10:23:23.005Z,76.00
2018-09-06T10:25:53.852Z,76.30
2018-09-06T10:28:22.548Z,76.90
2018-09-06T10:30:50.727Z,76.20
2018-09-06T10:33:19.386Z,76.40
2018-09-06T10:35:48.172Z,76.50
2018-09-06T10:38:16.156Z,76.40
2018-09-06T10:40:43.898Z,76.50
2018-09-06T10:43:11.826Z,76.50
2018-09-06T10:45:39.528Z,76.60
2018-09-06T10:48:07.229Z,76.80
2018-09-06T10:50:34.953Z,76.80
2018-09-06T10:53:02.652Z,77.20
2018-09-06T10:55:30.325Z,76.60
2018-09-06T10:57:59.032Z,76.70
2018-09-06T11:00:28.337Z,76.40
2018-09-06T11:02:56.312Z,76.60
2018-09-06T11:05:24.040Z,76.40
2018-09-06T11:07:52.677Z,76.60
2018-09-06T11:10:21.552Z,76.60
2018-09-06T11:12:49.417Z,76.60
2018-09-06T11:15:17.163Z,76.60
2018-09-06T11:17:45.615Z,76.60
2018-09-06T11:20:13.331Z,76.70
2018-09-06T11:22:41.225Z,76.60
2018-09-06T11:25:09.806Z,76.80
2018-09-06T11:27:37.621Z,76.90
2018-09-06T11:30:05.312Z,76.80
2018-09-06T11:32:33.003Z,77.00
2018-09-06T11:35:00.720Z,76.80
2018-09-06T11:37:28.434Z,77.10
2018-09-06T11:39:56.178Z,77.00
2018-09-06T11:42:23.794Z,76.80
2018-09-06T11:44:52.599Z,76.70
2018-09-06T11:47:20.887Z,76.60
2018-09-06T11:49:48.580Z,77.00
2018-09-06T11:52:17.437Z,76.70
2018-09-06T11:54:46.320Z,76.80
2018-09-06T11:57:15.759Z,76.60
2018-09-06T11:59:44.424Z,76.90
2018-09-06T12:02:12.144Z,76.80
2018-09-06T12:04:39.812Z,77.10
2018-09-06T12:07:07.520Z,76.70
2018-09-06T12:09:35.181Z,76.70
2018-09-06T12:12:03.871Z,76.50
2018-09-06T12:14:32.428Z,77.00
2018-09-06T12:17:01.079Z,77.10
2018-09-06T12:19:28.892Z,77.10
2018-09-06T12:21:57.607Z,77.00
2018-09-06T12:24:26.287Z,77.10
2018-09-06T12:26:54.981Z,77.20
2018-09-06T12:29:22.658Z,77.00
2018-09-06T12:31:52.812Z,77.00
2018-09-06T12:34:21.380Z,76.90
2018-09-06T12:36:49.076Z,77.10
2018-09-06T12:39:17.629Z,76.80
2018-09-06T12:41:46.356Z,76.90
2018-09-06T12:44:14.199Z,76.80
2018-09-06T12:46:41.880Z,76.60
2018-09-06T12:49:09.686Z,76.70
2018-09-06T12:51:37.351Z,77.20
2018-09-06T12:54:05.921Z,76.80
2018-09-06T12:56:34.731Z,76.80
2018-09-06T12:59:02.432Z,76.70
2018-09-06T13:01:30.099Z,75.20
2018-09-06T13:03:58.744Z,74.30
2018-09-06T13:06:26.465Z,74.10
2018-09-06T13:08:54.157Z,73.50
2018-09-06T13:11:22.816Z,73.60
2018-09-06T13:13:51.247Z,73.20
2018-09-06T13:16:18.929Z,73.20
2018-09-06T13:18:47.703Z,73.30
2018-09-06T13:21:16.220Z,73.10
2018-09-06T13:23:45.498Z,73.70
2018-09-06T13:26:13.236Z,73.90
2018-09-06T13:28:40.968Z,73.10
2018-09-06T13:31:09.575Z,73.20
2018-09-06T13:33:37.240Z,73.40
2018-09-06T13:36:04.917Z,73.30
2018-09-06T13:38:33.368Z,73.50
2018-09-06T13:41:01.312Z,73.60
2018-09-06T13:43:30.063Z,73.70
2018-09-06T13:45:58.768Z,73.70
2018-09-06T13:48:27.535Z,74.40
2018-09-06T13:50:56.284Z,73.90
2018-09-06T13:53:24.968Z,73.80
2018-09-06T13:55:54.320Z,73.70
2018-09-06T13:58:22.984Z,74.00
2018-09-06T14:00:52.512Z,74.00
2018-09-06T14:03:21.448Z,73.90
2018-09-06T14:05:51.995Z,74.00
2018-09-06T14:08:22.079Z,74.20
2018-09-06T14:10:51.872Z,74.20
2018-09-06T14:13:21.183Z,74.00
2018-09-06T14:15:50.008Z,73.90
2018-09-06T14:18:19.235Z,74.00
2018-09-06T14:20:48.472Z,74.10
2018-09-06T14:23:18.471Z,74.10
2018-09-06T14:25:47.733Z,73.70
2018-09-06T14:28:17.252Z,74.20
2018-09-06T14:30:46.448Z,74.10
2018-09-06T14:33:14.135Z,73.70
2018-09-06T14:35:41.848Z,74.00
2018-09-06T14:38:09.515Z,74.30
2018-09-06T14:40:38.226Z,74.30
2018-09-06T14:43:06.947Z,74.30
2018-09-06T14:45:35.628Z,74.10
2018-09-06T14:48:04.299Z,73.80
2018-09-06T14:50:32.981Z,74.70
2018-09-06T14:53:01.787Z,74.00
2018-09-06T14:55:30.383Z,74.00
2018-09-06T14:57:59.115Z,73.60
2018-09-06T15:00:27.803Z,73.30
2018-09-06T15:02:56.536Z,73.70
2018-09-06T15:05:25.095Z,73.50
2018-09-06T15:07:53.880Z,73.00
2018-09-06T15:10:22.659Z,73.50
2018-09-06T15:12:52.001Z,73.70
2018-09-06T15:15:21.443Z,73.70
2018-09-06T15:17:49.129Z,73.30
2018-09-06T15:20:17.699Z,73.60
2018-09-06T15:22:46.760Z,74.10
2018-09-06T15:25:16.126Z,74.30
2018-09-06T15:27:43.882Z,74.40
2018-09-06T15:30:12.429Z,74.50
2018-09-06T15:32:41.116Z,74.80
2018-09-06T15:35:09.849Z,74.80
2018-09-06T15:37:37.609Z,74.80
2018-09-06T15:40:06.123Z,75.00
2018-09-06T15:42:34.893Z,75.20
2018-09-06T15:45:02.616Z,75.10
2018-09-06T15:47:31.203Z,75.10
2018-09-06T15:50:00.129Z,75.00
2018-09-06T15:52:27.750Z,74.50
2018-09-06T15:54:56.348Z,74.70
2018-09-06T15:57:25.182Z,74.40
2018-09-06T15:59:53.732Z,75.00
2018-09-06T16:02:22.484Z,75.00
2018-09-06T16:04:51.845Z,75.00
2018-09-06T16:07:20.351Z,75.00
2018-09-06T16:09:49.367Z,75.10
2018-09-06T16:12:18.568Z,75.10
2018-09-06T16:14:47.357Z,74.90
2018-09-06T16:17:15.621Z,74.80
2018-09-06T16:19:44.315Z,75.20
2018-09-06T16:22:13.034Z,75.10
2018-09-06T16:24:41.741Z,75.20
2018-09-06T16:27:10.533Z,75.40
2018-09-06T16:29:38.224Z,74.50
2018-09-06T16:32:05.978Z,74.90
2018-09-06T16:34:33.647Z,74.90
2018-09-06T16:37:01.331Z,75.10
2018-09-06T16:39:30.206Z,75.20
2018-09-06T16:41:57.871Z,75.10
2018-09-06T16:44:25.585Z,75.10
2018-09-06T16:46:53.272Z,75.30
2018-09-06T16:49:21.583Z,75.40
2018-09-06T16:51:49.332Z,75.40
2018-09-06T16:54:17.839Z,75.50
2018-09-06T16:56:45.540Z,75.40
2018-09-06T16:59:13.220Z,75.60
2018-09-06T17:01:40.908Z,75.50
2018-09-06T17:04:08.580Z,75.60
2018-09-06T17:06:36.395Z,75.60
2018-09-06T17:09:05.027Z,75.40
2018-09-06T17:11:32.701Z,75.70
2018-09-06T17:14:00.466Z,75.90
2018-09-06T17:16:28.691Z,75.80
2018-09-06T17:18:57.361Z,76.00
2018-09-06T17:21:26.136Z,75.80
2018-09-06T17:23:54.176Z,76.40
2018-09-06T17:26:22.457Z,75.90
2018-09-06T17:28:50.869Z,75.80
2018-09-06T17:31:22.698Z,76.00
2018-09-06T17:33:51.796Z,75.70
2018-09-06T17:36:20.267Z,76.10
2018-09-06T17:38:48.814Z,76.10
2018-09-06T17:41:17.648Z,76.30
2018-09-06T17:43:46.060Z,76.30
2018-09-06T17:46:13.743Z,76.00
2018-09-06T17:48:41.555Z,76.30
2018-09-06T17:51:09.247Z,76.20
2018-09-06T17:53:36.964Z,76.00
2018-09-06T17:56:05.650Z,76.60
2018-09-06T17:58:33.333Z,76.60
2018-09-06T18:01:07.539Z,76.50
2018-09-06T18:03:35.236Z,76.30
2018-09-06T18:06:02.913Z,76.40
2018-09-06T18:08:30.571Z,76.60
2018-09-06T18:10:58.331Z,76.70
2018-09-06T18:13:26.962Z,76.50
2018-09-06T18:15:55.109Z,76.70
2018-09-06T18:18:23.829Z,76.40
2018-09-06T18:20:53.056Z,76.40
2018-09-06T18:23:20.752Z,76.60
2018-09-06T18:25:48.436Z,76.40
2018-09-06T18:28:17.417Z,76.80
2018-09-06T18:30:45.690Z,77.00
2018-09-06T18:33:14.463Z,76.90
2018-09-06T18:35:42.161Z,76.30
2018-09-06T18:38:10.856Z,77.10
2018-09-06T18:40:38.609Z,77.00
2018-09-06T18:43:07.210Z,77.10
2018-09-06T18:45:34.941Z,76.90
2018-09-06T18:48:02.661Z,77.00
2018-09-06T18:50:31.260Z,77.00
2018-09-06T18:52:58.932Z,77.20
2018-09-06T18:55:26.695Z,76.90
2018-09-06T18:57:54.372Z,77.20
2018-09-06T19:00:23.098Z,77.10
2018-09-06T19:02:51.579Z,77.20
2018-09-06T19:05:19.304Z,77.10
2018-09-06T19:07:47.934Z,77.40
2018-09-06T19:10:16.461Z,77.30
2018-09-06T19:12:44.388Z,77.30
2018-09-06T19:15:13.077Z,77.40
2018-09-06T19:17:40.869Z,77.50
2018-09-06T19:20:09.465Z,77.30
2018-09-06T19:22:37.296Z,77.40
2018-09-06T19:25:06.036Z,77.20
2018-09-06T19:27:33.708Z,77.10
2018-09-06T19:30:01.422Z,77.80
2018-09-06T19:32:29.105Z,77.20
2018-09-06T19:34:57.785Z,77.80
2018-09-06T19:37:25.483Z,77.40
2018-09-06T19:39:53.170Z,77.30
2018-09-06T19:42:22.013Z,77.20
2018-09-06T19:44:50.962Z,77.20
2018-09-06T19:47:18.796Z,77.40
2018-09-06T19:49:46.516Z,77.50
2018-09-06T19:52:15.752Z,77.30
2018-09-06T19:54:47.772Z,77.40
2018-09-06T19:57:16.240Z,77.00
2018-09-06T19:59:43.937Z,77.10
2018-09-06T20:02:12.689Z,77.00
2018-09-06T20:04:40.516Z,77.10
2018-09-06T20:07:09.200Z,77.20
2018-09-06T20:09:36.904Z,77.00
2018-09-06T20:12:05.621Z,76.60
2018-09-06T20:14:33.407Z,77.00
2018-09-06T20:17:01.233Z,77.20
2018-09-06T20:19:28.905Z,76.70
2018-09-06T20:21:56.597Z,76.80
2018-09-06T20:24:25.165Z,76.80
2018-09-06T20:26:53.927Z,76.50
2018-09-06T20:29:22.524Z,76.50
2018-09-06T20:31:51.853Z,76.80
2018-09-06T20:34:21.510Z,76.80
2018-09-06T20:36:51.372Z,76.60
2018-09-06T20:39:20.945Z,76.60
2018-09-06T20:41:50.570Z,76.60
2018-09-06T20:44:19.132Z,76.40
2018-09-06T20:46:47.804Z,76.60
2018-09-06T20:49:16.781Z,76.40
2018-09-06T20:51:46.523Z,76.50
2018-09-06T20:54:14.195Z,76.80
2018-09-06T20:56:42.036Z,76.90
2018-09-06T20:59:09.784Z,76.60
2018-09-06T21:01:38.552Z,76.60
2018-09-06T21:04:06.225Z,77.10
2018-09-06T21:06:33.909Z,76.60
2018-09-06T21:09:01.568Z,76.80
2018-09-06T21:11:29.244Z,76.70
2018-09-06T21:13:57.841Z,76.60
2018-09-06T21:16:25.612Z,76.70
2018-09-06T21:18:53.280Z,77.00
2018-09-06T21:21:22.399Z,76.60
2018-09-06T21:23:52.360Z,76.60
2018-09-06T21:26:22.499Z,76.60
2018-09-06T21:28:52.205Z,76.60
2018-09-06T21:31:21.289Z,76.70
2018-09-06T21:33:48.971Z,76.80
2018-09-06T21:36:17.748Z,76.60
2018-09-06T21:38:46.022Z,76.90
2018-09-06T21:41:13.697Z,76.70
2018-09-06T21:43:41.386Z,76.60
2018-09-06T21:46:09.068Z,76.60
2018-09-06T21:48:36.761Z,76.30
2018-09-06T21:51:04.444Z,76.70
2018-09-06T21:53:32.957Z,76.70
2018-09-06T21:56:00.624Z,76.30
2018-09-06T21:58:29.230Z,76.50
2018-09-06T22:00:56.921Z,76.90
2018-09-06T22:03:30.141Z,76.60
2018-09-06T22:05:58.720Z,76.60
2018-09-06T22:08:26.376Z,76.50
2018-09-06T22:10:54.048Z,76.50
2018-09-06T22:13:23.576Z,76.60
2018-09-06T22:15:53.572Z,76.60
2018-09-06T22:18:22.173Z,76.50
2018-09-06T22:20:51.795Z,76.60
2018-09-06T22:23:21.401Z,76.50
2018-09-06T22:25:49.076Z,76.60
2018-09-06T22:28:17.672Z,76.60
2018-09-06T22:30:47.699Z,76.60
2018-09-06T22:33:17.300Z,76.60
2018-09-06T22:35:44.980Z,76.70
2018-09-06T22:38:12.664Z,76.70
2018-09-06T22:40:40.716Z,76.80
2018-09-06T22:43:08.404Z,76.80
2018-09-06T22:45:37.069Z,76.70
2018-09-06T22:48:04.832Z,76.60
2018-09-06T22:50:32.499Z,77.40
2018-09-06T22:53:00.187Z,76.90
2018-09-06T22:55:28.848Z,77.50
2018-09-06T22:57:56.583Z,76.80
2018-09-06T23:00:28.571Z,76.80
2018-09-06T23:03:02.892Z,77.50
2018-09-06T23:05:31.544Z,76.70
2018-09-06T23:08:00.298Z,77.00
2018-09-06T23:10:28.245Z,76.80
2018-09-06T23:12:55.928Z,77.00
2018-09-06T23:15:23.598Z,76.80
2018-09-06T23:17:52.152Z,77.00
2018-09-06T23:20:20.550Z,77.00
2018-09-06T23:22:49.300Z,77.00
2018-09-06T23:25:17.988Z,77.00
2018-09-06T23:27:47.393Z,76.90
2018-09-06T23:30:17.012Z,76.80
2018-09-06T23:32:44.704Z,77.00
2018-09-06T23:35:12.423Z,76.90
2018-09-06T23:37:40.124Z,77.60
2018-09-06T23:40:07.810Z,76.80
2018-09-06T23:42:35.538Z,76.90
2018-09-06T23:45:03.233Z,76.90
2018-09-06T23:47:31.795Z,77.10
2018-09-06T23:50:00.513Z,77.00
2018-09-06T23:52:29.222Z,76.80
2018-09-06T23:54:57.932Z,76.80
2018-09-06T23:57:26.656Z,76.80
2018-09-06T23:59:55.304Z,76.80
